Time;durP1;ratioP1;P1;durP2;ratioP2;P2;SDS_P1;SDS_P2;PMS_P1;PMS_P2;Temp;Humidity;BMP_temperature;BMP_pressure;BME280_temperature;BME280_humidity;BME280_pressure;Samples;Min_cycle;Max_cycle;Signal;HPM_P1;HPM_P2
2022/11/13 00:00:38;;;;;;;5.90;5.50;;;;;;;11.07;100.00;101111.88;5092477;28;20249;-62
2022/11/13 00:03:04;;;;;;;6.47;5.97;;;;;;;11.11;100.00;101120.38;5092723;28;20241;-61
2022/11/13 00:05:31;;;;;;;6.00;5.60;;;;;;;11.10;100.00;101119.53;5093029;28;20197;-62
2022/11/13 00:07:58;;;;;;;7.00;6.47;;;;;;;11.13;100.00;101119.22;5092326;28;20200;-61
2022/11/13 00:10:26;;;;;;;6.23;5.83;;;;;;;11.21;100.00;101116.59;5092341;28;20746;-62
2022/11/13 00:12:53;;;;;;;6.80;6.30;;;;;;;11.18;100.00;101121.41;5092604;28;20188;-62
2022/11/13 00:15:20;;;;;;;5.67;5.27;;;;;;;11.19;100.00;101123.88;5073607;28;20254;-61
2022/11/13 00:17:46;;;;;;;5.87;5.47;;;;;;;11.18;100.00;101116.91;5072686;28;20225;-61
2022/11/13 00:20:13;;;;;;;6.03;5.73;;;;;;;11.26;100.00;101118.78;5072280;28;20202;-61
2022/11/13 00:22:40;;;;;;;5.80;5.43;;;;;;;11.29;100.00;101111.28;5072361;28;20270;-62
2022/11/13 00:25:07;;;;;;;6.73;6.10;;;;;;;11.31;100.00;101111.94;5071912;28;20195;-61
2022/11/13 00:27:35;;;;;;;6.20;5.80;;;;;;;11.28;100.00;101120.28;5072535;28;20193;-61
2022/11/13 00:30:02;;;;;;;6.13;5.63;;;;;;;11.29;100.00;101113.94;5083192;28;20247;-61
2022/11/13 00:32:28;;;;;;;6.17;5.77;;;;;;;11.29;100.00;101124.59;5092376;28;20284;-61
2022/11/13 00:34:55;;;;;;;6.87;6.37;;;;;;;11.27;100.00;101113.25;5092524;28;20192;-62
2022/11/13 00:37:22;;;;;;;8.87;7.97;;;;;;;11.26;100.00;101108.94;5092068;28;20188;-61
2022/11/13 00:39:48;;;;;;;8.13;7.50;;;;;;;11.24;100.00;101118.94;5092114;28;20201;-61
2022/11/13 00:42:15;;;;;;;8.10;7.30;;;;;;;11.30;100.00;101110.28;5092762;28;20317;-61
2022/11/13 00:44:43;;;;;;;7.00;6.43;;;;;;;11.32;100.00;101107.47;5092494;28;20199;-61
2022/11/13 00:47:10;;;;;;;6.37;5.97;;;;;;;11.32;100.00;101105.66;5091962;28;20193;-61
2022/11/13 00:49:36;;;;;;;6.20;5.70;;;;;;;11.35;100.00;101113.28;5092111;28;20191;-61
2022/11/13 00:52:03;;;;;;;6.20;5.80;;;;;;;11.35;100.00;101115.94;5092455;28;20252;-61
2022/11/13 00:54:30;;;;;;;7.67;5.87;;;;;;;11.34;100.00;101110.78;5093501;28;20192;-61
2022/11/13 00:56:57;;;;;;;6.50;6.10;;;;;;;11.40;100.00;101113.66;5096361;28;20221;-62
2022/11/13 00:59:23;;;;;;;6.67;6.17;;;;;;;11.47;100.00;101112.00;5096161;28;20323;-61
2022/11/13 01:01:51;;;;;;;6.37;5.80;;;;;;;11.45;100.00;101113.16;5096547;28;20272;-61
2022/11/13 01:04:18;;;;;;;7.47;6.90;;;;;;;11.47;100.00;101113.84;5095780;28;20191;-61
2022/11/13 01:06:45;;;;;;;7.00;6.50;;;;;;;11.49;100.00;101115.34;5096204;28;20283;-61
2022/11/13 01:09:12;;;;;;;7.47;6.97;;;;;;;11.51;100.00;101116.00;5095749;28;20285;-62
2022/11/13 01:11:38;;;;;;;7.40;6.90;;;;;;;11.50;100.00;101111.69;5096128;28;20252;-61
2022/11/13 01:14:05;;;;;;;7.43;6.80;;;;;;;11.52;100.00;101115.03;5086855;28;20197;-62
2022/11/13 01:16:32;;;;;;;7.47;6.97;;;;;;;11.48;100.00;101108.38;5075409;28;20243;-62
2022/11/13 01:19:00;;;;;;;6.83;6.33;;;;;;;11.46;100.00;101115.66;5075344;28;20609;-62
2022/11/13 01:21:28;;;;;;;7.17;6.63;;;;;;;11.42;100.00;101109.00;5076328;28;20220;-61
2022/11/13 01:23:55;;;;;;;7.20;6.57;;;;;;;11.36;100.00;101109.66;5075474;28;20197;-61
2022/11/13 01:26:24;;;;;;;7.57;6.83;;;;;;;11.33;100.00;101104.66;5075555;28;20189;-61
2022/11/13 01:28:51;;;;;;;7.13;6.23;;;;;;;11.30;100.00;101104.16;5076173;28;20197;-61
2022/11/13 01:31:20;;;;;;;7.53;6.67;;;;;;;11.29;100.00;101108.63;5095449;28;20196;-61
2022/11/13 01:33:49;;;;;;;7.43;6.93;;;;;;;11.27;100.00;101099.97;5095745;28;20279;-61
2022/11/13 01:36:19;;;;;;;8.00;7.40;;;;;;;11.26;100.00;101108.94;5096468;28;20254;-61
2022/11/13 01:38:46;;;;;;;8.00;7.20;;;;;;;10.98;100.00;101054.31;5074118;28;20765;-63
2022/11/13 01:41:17;;;;;;;7.67;7.07;;;;;;;11.27;100.00;101109.78;5073693;28;20274;-61
2022/11/13 01:43:43;;;;;;;8.27;7.47;;;;;;;11.24;100.00;101100.31;5074791;28;20223;-62
2022/11/13 01:46:19;;;;;;;7.80;7.30;;;;;;;11.28;100.00;101099.00;5075001;28;20257;-62
2022/11/13 01:48:49;;;;;;;7.53;6.97;;;;;;;11.29;100.00;101097.16;5075350;28;20188;-61
2022/11/13 01:51:26;;;;;;;7.90;7.20;;;;;;;11.33;100.00;101099.34;5075282;28;20220;-61
2022/11/13 01:53:53;;;;;;;8.07;7.47;;;;;;;11.39;100.00;101088.03;5074999;28;20184;-62
2022/11/13 01:56:20;;;;;;;8.47;7.63;;;;;;;11.43;100.00;101084.06;5074616;28;20188;-61
2022/11/13 01:59:04;;;;;;;7.53;6.93;;;;;;;11.48;100.00;101096.88;5074936;28;20196;-61
2022/11/13 02:01:30;;;;;;;7.63;7.03;;;;;;;11.47;100.00;101082.72;5074404;28;20208;-61
2022/11/13 02:03:57;;;;;;;7.57;7.00;;;;;;;11.52;100.00;101099.06;5074809;28;20197;-62
2022/11/13 02:06:28;;;;;;;8.10;7.40;;;;;;;11.52;100.00;101091.09;5073575;28;20197;-61
2022/11/13 02:08:54;;;;;;;8.60;7.80;;;;;;;11.48;100.00;101089.75;5074526;28;20258;-62
2022/11/13 02:11:22;;;;;;;9.97;9.00;;;;;;;11.42;100.00;101097.50;5073888;28;20197;-61
2022/11/13 02:13:49;;;;;;;10.53;9.47;;;;;;;11.36;100.00;101093.69;5080331;28;20254;-61
2022/11/13 02:16:17;;;;;;;9.10;8.40;;;;;;;11.32;100.00;101087.03;5073907;28;20293;-62
2022/11/13 02:18:45;;;;;;;10.27;8.17;;;;;;;11.33;100.00;101094.00;5073999;28;20181;-61
2022/11/13 02:21:24;;;;;;;8.03;7.33;;;;;;;11.39;100.00;101093.34;5073873;28;20201;-61
2022/11/13 02:24:00;;;;;;;8.43;7.73;;;;;;;11.46;100.00;101083.72;5074767;28;20185;-61
2022/11/13 02:26:31;;;;;;;8.83;7.93;;;;;;;11.46;100.00;101085.56;5074325;28;20269;-61
2022/11/13 02:28:57;;;;;;;8.63;7.83;;;;;;;11.52;100.00;101088.44;5076349;28;20218;-61
2022/11/13 02:31:24;;;;;;;8.00;7.40;;;;;;;11.54;100.00;101078.44;5094117;28;20226;-61
2022/11/13 02:33:51;;;;;;;8.27;7.57;;;;;;;11.56;100.00;101073.75;5094014;28;20193;-61
2022/11/13 02:36:21;;;;;;;8.77;7.87;;;;;;;11.58;100.00;101071.78;5094438;28;20192;-61
2022/11/13 02:38:48;;;;;;;8.13;7.50;;;;;;;11.60;100.00;101079.59;5093992;28;20252;-61
2022/11/13 02:41:15;;;;;;;9.10;8.20;;;;;;;11.58;100.00;101082.44;5093818;28;20201;-61
2022/11/13 02:43:43;;;;;;;7.73;7.07;;;;;;;11.62;100.00;101075.81;5094015;28;20247;-61
2022/11/13 02:46:09;;;;;;;7.90;7.17;;;;;;;11.65;100.00;101083.47;5093905;28;20227;-62
2022/11/13 02:48:36;;;;;;;9.83;7.57;;;;;;;11.68;100.00;101077.00;5094233;28;20247;-61
2022/11/13 02:51:04;;;;;;;8.23;7.50;;;;;;;11.66;100.00;101078.97;5094064;28;20193;-61
2022/11/13 02:53:31;;;;;;;8.33;7.63;;;;;;;11.71;100.00;101082.81;5093490;28;20262;-61
2022/11/13 02:55:57;;;;;;;8.23;7.53;;;;;;;11.75;100.00;101078.81;5093977;28;20195;-61
2022/11/13 02:58:24;;;;;;;9.53;7.43;;;;;;;11.82;100.00;101084.31;5093792;28;20193;-61
2022/11/13 03:00:52;;;;;;;9.07;7.63;;;;;;;11.84;100.00;101082.34;5093505;28;20577;-62
2022/11/13 03:03:19;;;;;;;8.50;7.80;;;;;;;11.88;100.00;101081.00;5093331;28;20220;-61
2022/11/13 03:05:48;;;;;;;9.03;8.23;;;;;;;11.90;100.00;101081.66;5093244;28;20618;-61
2022/11/13 03:08:15;;;;;;;8.23;7.60;;;;;;;11.88;100.00;101081.00;5093583;28;20246;-61
2022/11/13 03:10:42;;;;;;;8.73;7.47;;;;;;;11.88;100.00;101079.16;5093269;28;20568;-61
2022/11/13 03:13:09;;;;;;;7.60;7.00;;;;;;;11.73;100.00;101056.88;5086793;28;20738;-62
2022/11/13 03:15:35;;;;;;;8.17;7.57;;;;;;;11.85;100.00;101078.66;5093215;28;20205;-61
2022/11/13 03:18:04;;;;;;;8.27;7.47;;;;;;;11.77;100.00;101074.19;5093044;28;20701;-63
2022/11/13 03:20:31;;;;;;;8.20;7.50;;;;;;;11.74;100.00;101071.84;5093011;28;20620;-61
2022/11/13 03:22:58;;;;;;;8.17;7.53;;;;;;;11.75;100.00;101073.50;5092852;28;20224;-62
2022/11/13 03:25:24;;;;;;;8.47;7.73;;;;;;;11.75;100.00;101067.34;5092721;28;20246;-61
2022/11/13 03:27:51;;;;;;;13.20;8.07;;;;;;;11.70;100.00;101061.69;5093220;28;20193;-61
2022/11/13 03:30:18;;;;;;;10.10;8.13;;;;;;;11.71;100.00;101066.84;5079394;28;20189;-61
2022/11/13 03:32:45;;;;;;;8.67;7.97;;;;;;;11.75;100.00;101068.19;5073113;28;20250;-61
2022/11/13 03:35:13;;;;;;;8.70;7.90;;;;;;;11.79;100.00;101066.84;5072196;28;20266;-62
2022/11/13 03:37:40;;;;;;;8.70;7.87;;;;;;;11.83;100.00;101070.84;5072864;28;20227;-62
2022/11/13 03:40:08;;;;;;;8.13;7.50;;;;;;;11.83;100.00;101073.50;5072032;28;20246;-63
2022/11/13 03:42:35;;;;;;;8.90;7.77;;;;;;;11.84;100.00;101071.69;5072392;28;20275;-62
2022/11/13 03:45:01;;;;;;;8.53;7.83;;;;;;;11.85;100.00;101071.53;5072786;28;20194;-62
2022/11/13 03:47:28;;;;;;;9.07;8.20;;;;;;;11.89;100.00;101070.19;5072550;28;20189;-62
2022/11/13 03:49:55;;;;;;;9.70;8.80;;;;;;;11.94;100.00;101077.66;5072086;28;20262;-62
2022/11/13 03:52:23;;;;;;;8.93;8.13;;;;;;;11.94;100.00;101073.19;5072643;28;20248;-61
2022/11/13 03:54:50;;;;;;;9.07;7.67;;;;;;;11.94;100.00;101073.19;5072211;28;20223;-62
2022/11/13 03:57:16;;;;;;;10.90;8.67;;;;;;;11.97;100.00;101077.34;5072279;28;20270;-62
2022/11/13 03:59:43;;;;;;;9.13;8.20;;;;;;;11.98;100.00;101063.88;5072165;28;20243;-61
2022/11/13 04:02:10;;;;;;;8.37;7.67;;;;;;;12.01;100.00;101065.38;5072023;28;20787;-61
2022/11/13 04:04:36;;;;;;;8.80;8.07;;;;;;;12.03;100.00;101069.53;5072232;28;20624;-61
2022/11/13 04:07:03;;;;;;;9.03;8.23;;;;;;;12.05;100.00;101070.16;5072435;28;20206;-61
2022/11/13 04:09:31;;;;;;;8.97;8.03;;;;;;;11.96;100.00;101051.72;5072234;28;20197;-62
2022/11/13 04:11:58;;;;;;;8.60;7.93;;;;;;;12.06;100.00;101063.88;5072382;28;20321;-62
2022/11/13 04:14:24;;;;;;;8.80;8.00;;;;;;;12.06;100.00;101069.19;5078685;28;20193;-62
2022/11/13 04:16:51;;;;;;;8.03;7.40;;;;;;;12.00;100.00;101061.84;5071673;28;20221;-61
2022/11/13 04:19:18;;;;;;;8.93;8.10;;;;;;;11.95;100.00;101066.84;5072088;28;20190;-62
2022/11/13 04:21:44;;;;;;;9.43;8.50;;;;;;;11.92;100.00;101058.38;5071781;28;20268;-62
2022/11/13 04:24:11;;;;;;;9.40;8.40;;;;;;;11.82;100.00;101063.88;5071443;28;20711;-62
2022/11/13 04:26:39;;;;;;;12.43;11.13;;;;;;;11.71;100.00;101082.81;5072047;28;20197;-62
2022/11/13 04:29:06;;;;;;;11.23;10.23;;;;;;;11.64;100.00;101075.66;5074059;28;20231;-62
2022/11/13 04:31:32;;;;;;;11.40;10.20;;;;;;;11.59;100.00;101073.44;5092095;28;20193;-62
2022/11/13 04:33:59;;;;;;;11.73;10.57;;;;;;;11.56;100.00;101078.28;5091954;28;20251;-61
2022/11/13 04:36:26;;;;;;;11.10;9.83;;;;;;;11.58;100.00;101085.09;5091774;28;20231;-61
2022/11/13 04:38:53;;;;;;;11.00;10.00;;;;;;;11.61;100.00;101082.16;5091843;28;20247;-63
2022/11/13 04:44:05;;;;;;;11.10;10.07;;;;;;;11.62;100.00;101082.97;5091793;28;20261;-62
2022/11/13 04:46:32;;;;;;;10.70;9.53;;;;;;;11.58;100.00;101078.94;5091548;28;20192;-62
2022/11/13 04:48:58;;;;;;;11.27;10.17;;;;;;;11.49;100.00;101070.13;5091725;28;20192;-61
2022/11/13 04:51:25;;;;;;;10.87;9.77;;;;;;;11.57;100.00;101086.09;5091169;28;20245;-61
2022/11/13 04:53:52;;;;;;;13.23;12.00;;;;;;;11.62;100.00;101089.13;5091574;28;20733;-61
2022/11/13 04:56:18;;;;;;;12.20;11.10;;;;;;;11.65;100.00;101091.47;5091418;28;20574;-61
2022/11/13 04:58:45;;;;;;;11.83;10.63;;;;;;;11.70;100.00;101093.63;5092424;28;20189;-62
2022/11/13 05:01:13;;;;;;;12.20;11.10;;;;;;;11.70;100.00;101085.63;5091665;28;20191;-61
2022/11/13 05:03:40;;;;;;;12.67;10.97;;;;;;;11.68;100.00;101087.63;5091784;28;20220;-61
2022/11/13 05:06:08;;;;;;;11.67;10.40;;;;;;;11.68;100.00;101088.47;5092005;28;20196;-62
2022/11/13 05:08:35;;;;;;;12.60;11.40;;;;;;;11.70;100.00;101080.31;5091491;28;20733;-61
2022/11/13 05:11:03;;;;;;;10.77;9.47;;;;;;;11.74;100.00;101090.47;5091338;28;20247;-62
2022/11/13 05:13:31;;;;;;;11.07;10.00;;;;;;;11.75;100.00;101089.47;5087856;28;20189;-62
2022/11/13 05:16:02;;;;;;;12.27;10.67;;;;;;;11.76;100.00;101079.66;5071121;28;20288;-62
2022/11/13 05:18:31;;;;;;;14.03;10.27;;;;;;;11.68;100.00;101077.81;5070396;28;20225;-62
2022/11/13 05:20:58;;;;;;;14.13;10.97;;;;;;;11.71;100.00;101080.16;5071165;28;20194;-61
2022/11/13 05:23:25;;;;;;;11.87;10.73;;;;;;;11.72;100.00;101081.81;5070955;28;20318;-63
2022/11/13 05:25:52;;;;;;;10.97;9.97;;;;;;;11.75;100.00;101084.16;5071238;28;20334;-62
2022/11/13 05:28:18;;;;;;;11.77;10.67;;;;;;;11.73;100.00;101083.50;5071409;28;20208;-62
2022/11/13 05:30:45;;;;;;;10.47;9.47;;;;;;;11.71;100.00;101087.31;5087871;28;20193;-62
2022/11/13 05:33:12;;;;;;;12.17;10.10;;;;;;;11.73;100.00;101086.16;5090851;28;20261;-62
2022/11/13 05:35:40;;;;;;;13.30;10.33;;;;;;;11.78;100.00;101089.16;5090773;28;20729;-61
2022/11/13 05:38:06;;;;;;;11.40;10.40;;;;;;;11.82;100.00;101092.31;5091305;28;20262;-61
2022/11/13 05:40:33;;;;;;;13.53;10.87;;;;;;;11.87;100.00;101093.47;5092442;28;20237;-61
2022/11/13 05:43:00;;;;;;;11.03;10.13;;;;;;;11.74;100.00;101071.00;5094603;28;20220;-61
2022/11/13 05:45:26;;;;;;;12.40;11.17;;;;;;;11.93;100.00;101097.31;5094961;28;20272;-62
2022/11/13 05:47:53;;;;;;;11.47;10.40;;;;;;;11.94;100.00;101098.97;5094669;28;20193;-61
2022/11/13 05:50:21;;;;;;;14.33;11.27;;;;;;;11.96;100.00;101097.81;5094549;28;20218;-61
2022/11/13 05:52:49;;;;;;;13.60;10.13;;;;;;;11.91;100.00;101097.47;5094260;28;20203;-60
2022/11/13 05:55:16;;;;;;;13.10;11.80;;;;;;;11.85;100.00;101103.47;5094320;28;20242;-61
2022/11/13 05:57:42;;;;;;;12.47;11.17;;;;;;;11.84;100.00;101099.13;5094178;28;20194;-61
2022/11/13 06:00:10;;;;;;;12.50;10.57;;;;;;;11.84;100.00;101109.78;5093812;28;20199;-61
2022/11/13 06:02:37;;;;;;;12.97;11.07;;;;;;;11.86;100.00;101112.28;5093596;28;20225;-62
2022/11/13 06:05:04;;;;;;;19.63;12.47;;;;;;;11.81;100.00;101111.94;5093406;28;20212;-62
2022/11/13 06:07:30;;;;;;;13.30;11.93;;;;;;;11.86;100.00;101113.13;5093318;28;20664;-62
2022/11/13 06:09:58;;;;;;;13.23;11.87;;;;;;;11.85;100.00;101122.13;5093744;28;20245;-61
2022/11/13 06:12:25;;;;;;;14.37;12.30;;;;;;;11.86;100.00;101118.44;5093279;28;20244;-61
2022/11/13 06:14:52;;;;;;;11.80;10.67;;;;;;;11.91;100.00;101110.78;5078223;28;20217;-61
2022/11/13 06:17:18;;;;;;;10.70;9.70;;;;;;;11.98;100.00;101116.28;5072539;28;20721;-61
2022/11/13 06:19:47;;;;;;;11.67;10.50;;;;;;;12.04;100.00;101124.44;5073329;28;20346;-62
2022/11/13 06:22:13;;;;;;;11.67;10.23;;;;;;;12.21;100.00;101118.13;5073300;28;20275;-61
2022/11/13 06:24:40;;;;;;;13.10;11.80;;;;;;;12.45;100.00;101110.13;5073136;28;20259;-62
2022/11/13 06:27:08;;;;;;;16.13;12.23;;;;;;;12.66;100.00;101120.25;5073604;28;20286;-62
2022/11/13 06:29:35;;;;;;;12.53;11.33;;;;;;;12.75;98.40;101117.41;5080630;28;20287;-62
2022/11/13 06:32:01;;;;;;;13.17;11.87;;;;;;;12.86;99.81;101124.22;5093457;28;20770;-64
2022/11/13 06:34:28;;;;;;;13.03;11.73;;;;;;;12.93;98.87;101120.69;5093459;28;20621;-63
2022/11/13 06:36:55;;;;;;;13.97;11.70;;;;;;;13.12;98.69;101124.81;5093388;28;20686;-64
2022/11/13 06:39:21;;;;;;;12.47;11.27;;;;;;;13.31;95.85;101124.41;5093469;28;20190;-61
2022/11/13 06:41:48;;;;;;;16.70;10.47;;;;;;;13.58;98.26;101127.44;5093531;28;20195;-62
2022/11/13 06:44:16;;;;;;;13.03;11.37;;;;;;;13.83;94.41;101120.94;5092578;28;20280;-64
2022/11/13 06:46:43;;;;;;;12.33;11.17;;;;;;;14.08;92.66;101119.75;5093686;28;20253;-63
2022/11/13 06:49:09;;;;;;;12.53;11.23;;;;;;;14.34;92.61;101109.53;5093448;28;20198;-62
2022/11/13 06:51:36;;;;;;;11.53;9.60;;;;;;;14.65;89.76;101120.94;5092310;28;20249;-62
2022/11/13 06:54:03;;;;;;;12.80;10.20;;;;;;;14.75;85.13;101104.63;5092829;28;20288;-67
2022/11/13 06:56:29;;;;;;;12.77;10.60;;;;;;;14.84;85.01;101112.38;5092776;28;20226;-67
2022/11/13 06:58:56;;;;;;;10.33;9.30;;;;;;;15.00;86.79;101112.16;5092246;28;20243;-65
2022/11/13 07:01:26;;;;;;;10.40;9.27;;;;;;;15.05;83.76;101120.50;5092878;28;20260;-65
2022/11/13 07:03:53;;;;;;;9.03;8.33;;;;;;;15.09;82.82;101108.41;5092091;28;20215;-65
2022/11/13 07:06:22;;;;;;;9.07;8.27;;;;;;;15.41;83.63;101109.88;5092667;28;20257;-66
2022/11/13 07:08:49;;;;;;;9.97;9.10;;;;;;;15.89;82.32;101126.06;5093012;28;20245;-65
2022/11/13 07:11:17;;;;;;;8.33;7.73;;;;;;;16.43;80.59;101115.69;5091989;28;20622;-64
2022/11/13 07:13:45;;;;;;;7.83;7.23;;;;;;;16.91;78.15;101122.00;5086458;28;20250;-66
2022/11/13 07:16:13;;;;;;;9.40;8.63;;;;;;;17.28;79.06;101113.53;5071954;28;20192;-66
2022/11/13 07:18:41;;;;;;;8.67;8.03;;;;;;;17.66;75.84;101123.63;5072079;28;20605;-67
2022/11/13 07:21:11;;;;;;;9.40;8.50;;;;;;;18.07;73.35;101120.81;5072387;28;20555;-67
2022/11/13 07:23:41;;;;;;;8.93;7.93;;;;;;;18.39;70.61;101130.81;5072505;28;20629;-67
2022/11/13 07:26:09;;;;;;;9.10;8.27;;;;;;;18.53;70.82;101121.69;5071791;28;20187;-66
2022/11/13 07:28:36;;;;;;;8.43;7.90;;;;;;;18.78;69.30;101126.22;5071758;28;20619;-65
2022/11/13 07:31:03;;;;;;;9.53;6.87;;;;;;;19.03;68.74;101107.56;5071754;28;20270;-65
2022/11/13 07:33:30;;;;;;;8.63;7.93;;;;;;;19.19;64.96;101124.06;5089011;28;20713;-66
2022/11/13 07:35:58;;;;;;;7.90;7.23;;;;;;;19.00;64.59;101124.13;5092486;28;20188;-63
2022/11/13 07:38:25;;;;;;;8.50;7.83;;;;;;;19.10;66.75;101113.72;5092743;28;20728;-62
2022/11/13 07:40:52;;;;;;;8.10;7.50;;;;;;;18.70;66.80;101114.88;5093487;28;20187;-62
2022/11/13 07:43:18;;;;;;;8.63;8.03;;;;;;;19.10;68.00;101105.66;5093751;28;20264;-64
2022/11/13 07:45:45;;;;;;;8.30;7.70;;;;;;;19.30;66.47;101114.53;5092981;28;20243;-65
2022/11/13 07:48:12;;;;;;;8.13;7.53;;;;;;;19.41;66.42;101112.00;5092285;28;20188;-66
2022/11/13 07:50:39;;;;;;;8.50;7.80;;;;;;;19.06;65.34;101113.34;5081620;28;20676;-64
2022/11/13 07:53:08;;;;;;;8.10;7.40;;;;;;;18.86;66.53;101109.00;5081378;28;20238;-64
2022/11/13 07:55:35;;;;;;;7.97;7.27;;;;;;;18.79;66.70;101110.91;5090032;28;20219;-64
2022/11/13 07:58:04;;;;;;;8.60;8.00;;;;;;;18.67;65.90;101121.47;5084256;28;20244;-65
2022/11/13 08:00:32;;;;;;;8.50;7.80;;;;;;;18.57;65.83;101112.16;5082765;28;20615;-65
2022/11/13 08:03:05;;;;;;;8.80;8.10;;;;;;;18.30;66.44;101121.28;5081911;28;20287;-66
2022/11/13 08:05:32;;;;;;;9.83;8.93;;;;;;;17.90;68.55;101119.56;5080916;28;20230;-64
2022/11/13 08:07:59;;;;;;;10.73;9.07;;;;;;;17.54;69.06;101109.13;5073649;28;20195;-66
2022/11/13 08:10:27;;;;;;;11.30;10.37;;;;;;;17.39;70.46;101115.66;5072011;28;20242;-64
2022/11/13 08:12:59;;;;;;;10.20;9.33;;;;;;;17.19;71.96;101106.69;5077620;28;20193;-64
2022/11/13 08:15:25;;;;;;;11.20;10.20;;;;;;;17.06;73.61;101093.19;5074325;28;20670;-69
2022/11/13 08:17:56;;;;;;;11.03;9.13;;;;;;;16.93;73.05;101095.78;5072723;28;20281;-66
2022/11/13 08:20:22;;;;;;;12.77;10.30;;;;;;;16.88;73.39;101095.53;5072033;28;20252;-65
2022/11/13 08:22:49;;;;;;;11.13;10.03;;;;;;;16.99;72.78;101101.19;5074389;28;20251;-69
2022/11/13 08:25:17;;;;;;;13.10;11.90;;;;;;;16.97;72.14;101099.72;5085379;28;20187;-65
2022/11/13 08:27:45;;;;;;;11.73;10.63;;;;;;;17.05;72.33;101107.63;5081564;28;20250;-68
2022/11/13 08:30:13;;;;;;;12.60;10.20;;;;;;;16.90;72.71;101105.06;5081630;28;20191;-68
2022/11/13 08:32:40;;;;;;;12.80;10.87;;;;;;;16.87;73.15;101102.75;5080792;28;20192;-68
2022/11/13 08:35:07;;;;;;;13.30;11.93;;;;;;;16.94;73.74;101100.16;5081353;28;20229;-69
2022/11/13 08:37:34;;;;;;;13.93;11.33;;;;;;;16.96;71.62;101106.97;5082374;28;20213;-70
2022/11/13 08:40:00;;;;;;;13.47;12.27;;;;;;;16.96;70.61;101106.13;5081506;28;20198;-69
2022/11/13 08:42:27;;;;;;;14.77;11.73;;;;;;;16.77;72.28;101099.63;5078599;28;20211;-67
2022/11/13 08:44:55;;;;;;;16.90;12.23;;;;;;;16.65;72.39;101103.06;5079604;28;20643;-69
2022/11/13 08:47:22;;;;;;;13.17;11.93;;;;;;;16.57;73.99;101097.84;5092131;28;20188;-69
2022/11/13 08:49:48;;;;;;;16.23;13.30;;;;;;;16.48;72.76;101090.94;5092041;28;20245;-65
2022/11/13 08:52:15;;;;;;;13.63;12.43;;;;;;;16.75;74.62;101098.16;5091468;28;20196;-65
2022/11/13 08:54:42;;;;;;;14.70;13.20;;;;;;;17.02;73.05;101102.66;5088848;28;20192;-64
2022/11/13 08:57:09;;;;;;;12.80;11.50;;;;;;;17.34;74.89;101101.97;5086534;28;20194;-64
2022/11/13 08:59:35;;;;;;;12.70;11.40;;;;;;;17.67;73.30;101097.56;5091740;28;20195;-64
2022/11/13 09:02:03;;;;;;;37.33;33.50;;;;;;;18.06;71.87;101103.88;5091750;28;20635;-63
2022/11/13 09:04:30;;;;;;;23.47;21.17;;;;;;;18.28;71.59;101097.25;5087836;28;20208;-64
2022/11/13 09:06:57;;;;;;;16.00;13.27;;;;;;;18.60;69.66;101104.53;5071944;28;20191;-71
2022/11/13 09:09:24;;;;;;;14.07;12.70;;;;;;;18.88;66.92;101101.56;5071789;28;20192;-71
2022/11/13 09:11:50;;;;;;;13.00;11.90;;;;;;;19.17;66.56;101101.91;5074423;28;20188;-69
2022/11/13 09:14:17;;;;;;;15.23;13.60;;;;;;;19.47;65.01;101115.69;5076419;28;20736;-70
2022/11/13 09:16:44;;;;;;;15.67;13.90;;;;;;;19.77;62.83;101106.03;5085616;28;20262;-71
2022/11/13 09:19:12;;;;;;;14.83;13.53;;;;;;;20.06;61.19;101108.09;5083711;28;20241;-71
2022/11/13 09:21:39;;;;;;;16.00;14.30;;;;;;;20.31;62.17;101104.41;5081154;28;20634;-72
2022/11/13 09:24:06;;;;;;;14.97;13.07;;;;;;;20.44;61.97;101092.69;5075047;28;20224;-74
2022/11/13 09:26:34;;;;;;;19.57;13.73;;;;;;;20.47;63.37;101094.94;5075027;28;20635;-71
2022/11/13 09:29:01;;;;;;;15.83;14.50;;;;;;;20.63;61.45;101096.25;5077333;28;20272;-71
2022/11/13 09:31:28;;;;;;;16.77;14.93;;;;;;;20.73;58.42;101099.25;5086095;28;20199;-75
2022/11/13 09:33:55;;;;;;;16.30;14.80;;;;;;;20.60;60.40;101086.72;5079437;28;20232;-70
2022/11/13 09:36:23;;;;;;;16.40;14.80;;;;;;;20.55;59.89;101073.06;5077428;28;20627;-71
2022/11/13 09:38:49;;;;;;;17.23;15.63;;;;;;;20.46;60.71;101080.59;5057287;28;20187;-71
2022/11/13 09:41:20;;;;;;;20.53;16.17;;;;;;;20.21;61.98;101070.84;5074194;28;20265;-70
2022/11/13 09:43:52;;;;;;;16.70;14.90;;;;;;;20.13;62.64;101060.31;5078032;28;20214;-76
2022/11/13 09:46:23;;;;;;;17.90;16.07;;;;;;;20.06;60.65;101065.75;5093957;28;20202;-68
2022/11/13 09:48:55;;;;;;;18.70;15.10;;;;;;;20.17;61.21;101058.84;5090617;28;20183;-69
2022/11/13 09:51:28;;;;;;;19.30;17.17;;;;;;;20.44;61.07;101049.47;5094055;28;20212;-67
2022/11/13 09:53:55;;;;;;;17.90;15.00;;;;;;;20.57;59.43;101054.75;5089018;28;20204;-66
2022/11/13 09:56:32;;;;;;;20.60;17.20;;;;;;;20.95;58.63;101057.28;5072004;28;20246;-72
2022/11/13 09:59:15;;;;;;;17.30;15.60;;;;;;;20.96;56.41;101059.78;5071384;28;20283;-67
2022/11/13 10:01:53;;;;;;;18.47;15.43;;;;;;;20.76;57.56;101059.13;5069359;28;20183;-69
2022/11/13 10:04:32;;;;;;;23.03;17.43;;;;;;;20.19;58.49;101060.31;5068881;28;20265;-68
2022/11/13 10:07:18;;;;;;;17.60;15.40;;;;;;;19.78;59.32;101051.03;5085927;28;20184;-66
2022/11/13 10:10:00;;;;;;;21.97;15.73;;;;;;;19.33;61.22;101050.25;5090519;28;20244;-67
2022/11/13 10:12:29;;;;;;;18.17;15.30;;;;;;;19.23;62.47;101033.72;5085639;28;20185;-65
2022/11/13 10:15:00;;;;;;;16.07;14.40;;;;;;;19.19;62.08;101034.34;5078705;28;20230;-66
2022/11/13 10:17:33;;;;;;;17.40;15.33;;;;;;;18.96;63.28;101015.16;5071143;28;20236;-65
2022/11/13 10:20:03;;;;;;;17.13;14.33;;;;;;;19.01;63.94;101034.19;5066438;28;21078;-68
2022/11/13 10:22:38;;;;;;;17.60;15.30;;;;;;;18.97;63.94;101031.13;5068046;28;20682;-68
2022/11/13 10:25:13;;;;;;;18.07;14.90;;;;;;;18.79;63.42;101024.75;5070556;28;20270;-67
2022/11/13 10:27:40;;;;;;;17.63;14.60;;;;;;;18.39;63.89;101017.81;5067987;28;20191;-68
2022/11/13 10:33:28;;;;;;;15.13;12.07;;;;;;;18.24;64.19;101019.84;5090504;28;20254;-66
2022/11/13 10:36:01;;;;;;;13.87;12.67;;;;;;;18.41;63.38;101010.34;5073208;28;20238;-66
2022/11/13 10:38:35;;;;;;;13.23;12.03;;;;;;;18.56;62.04;101019.00;5084181;28;20199;-67
2022/11/13 10:41:07;;;;;;;13.67;12.50;;;;;;;18.38;62.26;101010.78;5063392;28;20664;-67
2022/11/13 10:43:33;;;;;;;14.10;12.93;;;;;;;18.17;63.07;101005.59;5087177;28;20233;-67
2022/11/13 10:46:02;;;;;;;15.43;14.00;;;;;;;17.79;65.03;100991.09;5070320;28;20254;-66
2022/11/13 10:48:31;;;;;;;15.00;13.60;;;;;;;17.98;65.18;101001.03;5071845;28;20196;-66
2022/11/13 10:51:00;;;;;;;15.83;14.33;;;;;;;18.00;64.18;100993.59;5073418;28;20392;-65
2022/11/13 10:53:37;;;;;;;15.57;14.13;;;;;;;18.16;64.81;100982.41;5073533;28;20195;-66
2022/11/13 10:56:14;;;;;;;14.27;12.83;;;;;;;18.08;63.68;100982.63;5073863;28;20272;-65
2022/11/13 10:58:40;;;;;;;13.97;12.50;;;;;;;17.95;62.88;100978.09;5073675;28;20637;-63
2022/11/13 11:01:14;;;;;;;18.43;14.77;;;;;;;17.78;65.44;100966.09;5073735;28;20253;-63
2022/11/13 11:03:49;;;;;;;15.97;14.37;;;;;;;17.86;65.84;100963.22;5074260;28;20551;-63
2022/11/13 11:06:16;;;;;;;15.70;13.50;;;;;;;17.93;65.56;100966.69;5073306;28;20188;-64
2022/11/13 11:08:44;;;;;;;11.60;10.70;;;;;;;17.78;64.59;100959.88;5073899;28;20199;-64
2022/11/13 11:14:10;;;;;;;16.93;14.07;;;;;;;17.85;64.43;100955.34;5079831;28;20737;-64
2022/11/13 11:16:37;;;;;;;14.27;12.97;;;;;;;18.02;63.32;100956.56;5073099;28;20220;-64
2022/11/13 11:19:10;;;;;;;14.83;13.43;;;;;;;17.78;64.32;100954.50;5073283;28;20192;-64
2022/11/13 11:21:40;;;;;;;14.60;13.07;;;;;;;17.65;63.08;100952.66;5074299;28;20191;-64
2022/11/13 11:24:14;;;;;;;14.40;13.23;;;;;;;17.86;63.54;100948.94;5072918;28;20304;-64